KJAC/JAC METAR and TAF weather

Enter ICAO airport designator
Station Type Date Time Source
KJAC METAR 2019/12/10 18:56 UTC NOAA

KJAC 101856Z 24014KT 10SM SCT045 M02/M07 A3020 RMK AO2 SLP267 T10171067


Station Type Date Time Source
KJAC Decoded METAR 2019/12/10 18:56 UTC NOAA

Jackson, Jackson Hole Airport, WY, United States (KJAC) 43-36N 110-44W
Dec 10, 2019 - 01:56 PM EST / 2019.12.10 1856 UTC
Wind: from the WSW (240 degrees) at 16 MPH (14 KT):0
Visibility: 10 mile(s):0
Sky conditions: partly cloudy
Temperature: 28.9 F (-1.7 C)
Windchill: 17 F (-8 C):1
Dew Point: 19.9 F (-6.7 C)
Relative Humidity: 68%
Pressure (altimeter): 30.2 in. Hg (1022 hPa)
ob: KJAC 101856Z 24014KT 10SM SCT045 M02/M07 A3020 RMK AO2 SLP267 T10171067
cycle: 19

Station Type Date Time Source
KJAC TAF 2019/12/10 18:24 UTC NOAA

TAF KJAC 101722Z 1018/1118 20010KT P6SM VCSH SCT025 OVC040
FM110000 VRB05KT P6SM SCT050 BKN080
FM111600 19007KT P6SM VCSH SCT025 BKN040
AMD LTD TO CLD VIS AND WIND

Example: see airport list